sensor_id;sensor_type;location;lat;lon;timestamp;temperature;humidity
68433;DHT22;55412;51.350;17.056;2022-08-03T00:00:47;19.70;62.60
68433;DHT22;55412;51.350;17.056;2022-08-03T00:03:13;19.70;62.50
68433;DHT22;55412;51.350;17.056;2022-08-03T00:05:39;19.70;62.60
68433;DHT22;55412;51.350;17.056;2022-08-03T00:08:05;19.70;62.90
68433;DHT22;55412;51.350;17.056;2022-08-03T00:10:31;19.70;63.00
68433;DHT22;55412;51.350;17.056;2022-08-03T00:12:57;19.70;63.00
68433;DHT22;55412;51.350;17.056;2022-08-03T00:15:23;19.70;63.10
68433;DHT22;55412;51.350;17.056;2022-08-03T00:17:49;19.70;63.20
68433;DHT22;55412;51.350;17.056;2022-08-03T00:20:16;19.70;63.40
68433;DHT22;55412;51.350;17.056;2022-08-03T00:22:42;19.70;63.20
68433;DHT22;55412;51.350;17.056;2022-08-03T00:25:08;19.70;63.30
68433;DHT22;55412;51.350;17.056;2022-08-03T00:27:34;19.70;63.30
68433;DHT22;55412;51.350;17.056;2022-08-03T00:30:00;19.70;63.20
68433;DHT22;55412;51.350;17.056;2022-08-03T00:32:26;19.70;63.20
68433;DHT22;55412;51.350;17.056;2022-08-03T00:34:52;19.70;63.30
68433;DHT22;55412;51.350;17.056;2022-08-03T00:37:18;19.70;63.20
68433;DHT22;55412;51.350;17.056;2022-08-03T00:39:44;19.70;63.40
68433;DHT22;55412;51.350;17.056;2022-08-03T00:42:11;19.70;63.30
68433;DHT22;55412;51.350;17.056;2022-08-03T00:44:39;19.70;63.40
68433;DHT22;55412;51.350;17.056;2022-08-03T00:47:06;19.70;63.60
68433;DHT22;55412;51.350;17.056;2022-08-03T00:49:38;19.60;63.80
68433;DHT22;55412;51.350;17.056;2022-08-03T00:52:07;19.60;64.00
68433;DHT22;55412;51.350;17.056;2022-08-03T00:54:36;19.50;64.10
68433;DHT22;55412;51.350;17.056;2022-08-03T00:57:04;19.50;64.40
68433;DHT22;55412;51.350;17.056;2022-08-03T00:59:30;19.40;64.60
68433;DHT22;55412;51.350;17.056;2022-08-03T01:01:56;19.40;64.80
68433;DHT22;55412;51.350;17.056;2022-08-03T01:04:23;19.30;64.80
68433;DHT22;55412;51.350;17.056;2022-08-03T01:15:41;19.30;64.90
68433;DHT22;55412;51.350;17.056;2022-08-03T01:18:19;19.30;65.00
68433;DHT22;55412;51.350;17.056;2022-08-03T01:20:54;19.30;65.30
68433;DHT22;55412;51.350;17.056;2022-08-03T01:31:25;19.20;65.10
68433;DHT22;55412;51.350;17.056;2022-08-03T01:33:58;19.20;65.30
68433;DHT22;55412;51.350;17.056;2022-08-03T01:36:32;19.20;65.40
68433;DHT22;55412;51.350;17.056;2022-08-03T01:39:03;19.10;65.40
68433;DHT22;55412;51.350;17.056;2022-08-03T01:41:43;19.10;65.80
68433;DHT22;55412;51.350;17.056;2022-08-03T01:44:14;19.10;65.70
68433;DHT22;55412;51.350;17.056;2022-08-03T01:46:41;19.10;65.60
68433;DHT22;55412;51.350;17.056;2022-08-03T01:49:10;19.10;65.70
68433;DHT22;55412;51.350;17.056;2022-08-03T01:51:38;19.10;65.50
68433;DHT22;55412;51.350;17.056;2022-08-03T01:54:08;19.10;65.70
68433;DHT22;55412;51.350;17.056;2022-08-03T01:56:36;19.10;65.60
68433;DHT22;55412;51.350;17.056;2022-08-03T01:59:03;19.00;65.90
68433;DHT22;55412;51.350;17.056;2022-08-03T02:01:31;19.00;65.80
68433;DHT22;55412;51.350;17.056;2022-08-03T02:03:58;19.00;65.70
68433;DHT22;55412;51.350;17.056;2022-08-03T02:06:26;19.00;65.80
68433;DHT22;55412;51.350;17.056;2022-08-03T02:08:53;19.00;65.90
68433;DHT22;55412;51.350;17.056;2022-08-03T02:11:20;19.10;66.10
68433;DHT22;55412;51.350;17.056;2022-08-03T02:13:47;19.00;66.40
68433;DHT22;55412;51.350;17.056;2022-08-03T02:16:17;19.00;66.30
68433;DHT22;55412;51.350;17.056;2022-08-03T02:18:44;19.00;66.30
68433;DHT22;55412;51.350;17.056;2022-08-03T02:21:14;19.00;66.30
68433;DHT22;55412;51.350;17.056;2022-08-03T02:23:40;19.00;66.20
68433;DHT22;55412;51.350;17.056;2022-08-03T02:26:11;19.00;66.20
68433;DHT22;55412;51.350;17.056;2022-08-03T02:28:42;19.10;66.20
68433;DHT22;55412;51.350;17.056;2022-08-03T02:31:14;19.10;66.10
68433;DHT22;55412;51.350;17.056;2022-08-03T02:33:51;19.10;66.10
68433;DHT22;55412;51.350;17.056;2022-08-03T02:36:26;19.10;66.10
68433;DHT22;55412;51.350;17.056;2022-08-03T02:38:58;19.10;66.10
68433;DHT22;55412;51.350;17.056;2022-08-03T02:41:35;19.10;66.20
68433;DHT22;55412;51.350;17.056;2022-08-03T02:44:10;19.10;66.30
68433;DHT22;55412;51.350;17.056;2022-08-03T02:46:40;19.10;66.10
68433;DHT22;55412;51.350;17.056;2022-08-03T02:49:10;19.10;66.10
68433;DHT22;55412;51.350;17.056;2022-08-03T02:51:38;19.10;66.00
68433;DHT22;55412;51.350;17.056;2022-08-03T02:54:05;19.20;66.10
68433;DHT22;55412;51.350;17.056;2022-08-03T02:56:34;19.20;66.30
68433;DHT22;55412;51.350;17.056;2022-08-03T02:59:02;19.20;66.40
68433;DHT22;55412;51.350;17.056;2022-08-03T03:01:29;19.20;66.90
68433;DHT22;55412;51.350;17.056;2022-08-03T03:03:56;19.10;66.70
68433;DHT22;55412;51.350;17.056;2022-08-03T03:06:24;19.10;67.00
68433;DHT22;55412;51.350;17.056;2022-08-03T03:08:51;19.10;66.80
68433;DHT22;55412;51.350;17.056;2022-08-03T03:11:20;19.10;66.90
68433;DHT22;55412;51.350;17.056;2022-08-03T03:13:48;19.00;67.30
68433;DHT22;55412;51.350;17.056;2022-08-03T03:16:16;19.00;67.40
68433;DHT22;55412;51.350;17.056;2022-08-03T03:18:44;19.00;67.50
68433;DHT22;55412;51.350;17.056;2022-08-03T03:21:12;19.00;67.70
68433;DHT22;55412;51.350;17.056;2022-08-03T03:23:40;19.00;67.50
68433;DHT22;55412;51.350;17.056;2022-08-03T03:26:07;19.00;67.60
68433;DHT22;55412;51.350;17.056;2022-08-03T03:28:35;19.00;67.50
68433;DHT22;55412;51.350;17.056;2022-08-03T03:31:05;19.00;67.50
68433;DHT22;55412;51.350;17.056;2022-08-03T03:33:35;19.00;67.40
68433;DHT22;55412;51.350;17.056;2022-08-03T03:36:04;19.00;67.30
68433;DHT22;55412;51.350;17.056;2022-08-03T03:38:32;19.00;66.90
68433;DHT22;55412;51.350;17.056;2022-08-03T03:40:59;19.10;66.20
68433;DHT22;55412;51.350;17.056;2022-08-03T03:43:26;19.10;66.50
68433;DHT22;55412;51.350;17.056;2022-08-03T03:45:54;19.10;66.60
68433;DHT22;55412;51.350;17.056;2022-08-03T03:48:20;19.10;66.20
68433;DHT22;55412;51.350;17.056;2022-08-03T03:50:48;19.20;66.50
68433;DHT22;55412;51.350;17.056;2022-08-03T03:53:14;19.20;66.50
68433;DHT22;55412;51.350;17.056;2022-08-03T03:55:41;19.20;66.60
68433;DHT22;55412;51.350;17.056;2022-08-03T03:58:07;19.10;66.40
68433;DHT22;55412;51.350;17.056;2022-08-03T04:00:34;19.20;66.40
68433;DHT22;55412;51.350;17.056;2022-08-03T04:03:00;19.20;66.60
68433;DHT22;55412;51.350;17.056;2022-08-03T04:05:26;19.20;66.70
68433;DHT22;55412;51.350;17.056;2022-08-03T04:08:15;19.10;66.80
68433;DHT22;55412;51.350;17.056;2022-08-03T04:11:19;19.20;66.90
68433;DHT22;55412;51.350;17.056;2022-08-03T04:14:07;19.20;67.00
68433;DHT22;55412;51.350;17.056;2022-08-03T04:16:39;19.20;66.80
68433;DHT22;55412;51.350;17.056;2022-08-03T04:19:13;19.10;67.10
68433;DHT22;55412;51.350;17.056;2022-08-03T04:21:43;19.20;67.10
68433;DHT22;55412;51.350;17.056;2022-08-03T04:24:12;19.20;67.20
68433;DHT22;55412;51.350;17.056;2022-08-03T04:26:40;19.20;67.20
68433;DHT22;55412;51.350;17.056;2022-08-03T04:29:09;19.20;67.20
68433;DHT22;55412;51.350;17.056;2022-08-03T04:31:37;19.20;67.00
68433;DHT22;55412;51.350;17.056;2022-08-03T04:34:04;19.20;66.80
68433;DHT22;55412;51.350;17.056;2022-08-03T04:36:32;19.30;66.60
68433;DHT22;55412;51.350;17.056;2022-08-03T04:39:23;19.30;66.70
68433;DHT22;55412;51.350;17.056;2022-08-03T04:41:54;19.40;66.60
68433;DHT22;55412;51.350;17.056;2022-08-03T04:44:23;19.50;66.30
68433;DHT22;55412;51.350;17.056;2022-08-03T04:46:51;19.60;66.00
68433;DHT22;55412;51.350;17.056;2022-08-03T04:49:19;19.70;65.80
68433;DHT22;55412;51.350;17.056;2022-08-03T04:51:48;19.80;65.30
68433;DHT22;55412;51.350;17.056;2022-08-03T04:54:15;19.80;64.90
68433;DHT22;55412;51.350;17.056;2022-08-03T04:56:44;19.90;64.70
68433;DHT22;55412;51.350;17.056;2022-08-03T04:59:10;20.10;64.20
68433;DHT22;55412;51.350;17.056;2022-08-03T05:01:37;20.20;63.70
68433;DHT22;55412;51.350;17.056;2022-08-03T05:04:04;20.40;63.10
68433;DHT22;55412;51.350;17.056;2022-08-03T05:06:30;20.80;62.30
68433;DHT22;55412;51.350;17.056;2022-08-03T05:08:56;21.10;62.00
68433;DHT22;55412;51.350;17.056;2022-08-03T05:11:22;21.50;61.00
68433;DHT22;55412;51.350;17.056;2022-08-03T05:13:48;21.90;59.90
68433;DHT22;55412;51.350;17.056;2022-08-03T05:16:15;22.20;59.20
68433;DHT22;55412;51.350;17.056;2022-08-03T05:18:41;22.60;58.30
68433;DHT22;55412;51.350;17.056;2022-08-03T05:21:08;22.90;58.00
68433;DHT22;55412;51.350;17.056;2022-08-03T05:23:35;23.30;56.40
68433;DHT22;55412;51.350;17.056;2022-08-03T05:26:02;23.60;55.10
68433;DHT22;55412;51.350;17.056;2022-08-03T05:28:29;23.90;54.80
68433;DHT22;55412;51.350;17.056;2022-08-03T05:30:55;24.30;54.00
68433;DHT22;55412;51.350;17.056;2022-08-03T05:33:21;24.70;53.80
68433;DHT22;55412;51.350;17.056;2022-08-03T05:35:47;25.00;50.90
68433;DHT22;55412;51.350;17.056;2022-08-03T05:38:13;25.10;50.80
68433;DHT22;55412;51.350;17.056;2022-08-03T05:40:40;25.40;50.20
68433;DHT22;55412;51.350;17.056;2022-08-03T05:43:06;25.60;49.90
68433;DHT22;55412;51.350;17.056;2022-08-03T05:45:32;25.60;48.70
68433;DHT22;55412;51.350;17.056;2022-08-03T05:47:58;25.80;48.50
68433;DHT22;55412;51.350;17.056;2022-08-03T05:50:24;26.00;48.40
68433;DHT22;55412;51.350;17.056;2022-08-03T05:52:50;26.20;48.30
68433;DHT22;55412;51.350;17.056;2022-08-03T05:55:16;27.20;46.50
68433;DHT22;55412;51.350;17.056;2022-08-03T05:57:45;29.30;43.30
68433;DHT22;55412;51.350;17.056;2022-08-03T06:00:12;31.70;39.90
68433;DHT22;55412;51.350;17.056;2022-08-03T06:02:38;34.30;36.20
68433;DHT22;55412;51.350;17.056;2022-08-03T06:05:05;36.60;33.20
68433;DHT22;55412;51.350;17.056;2022-08-03T06:07:33;38.50;31.40
68433;DHT22;55412;51.350;17.056;2022-08-03T06:09:59;40.20;28.40
68433;DHT22;55412;51.350;17.056;2022-08-03T06:12:28;41.80;27.50
68433;DHT22;55412;51.350;17.056;2022-08-03T06:14:56;43.40;25.40
68433;DHT22;55412;51.350;17.056;2022-08-03T06:17:23;44.60;25.10
68433;DHT22;55412;51.350;17.056;2022-08-03T06:19:51;45.90;23.80
68433;DHT22;55412;51.350;17.056;2022-08-03T06:22:19;46.80;22.60
68433;DHT22;55412;51.350;17.056;2022-08-03T06:24:45;47.30;22.30
68433;DHT22;55412;51.350;17.056;2022-08-03T06:27:11;47.70;22.30
68433;DHT22;55412;51.350;17.056;2022-08-03T06:29:37;47.90;21.60
68433;DHT22;55412;51.350;17.056;2022-08-03T06:32:03;48.70;21.20
68433;DHT22;55412;51.350;17.056;2022-08-03T06:34:30;49.20;20.70
68433;DHT22;55412;51.350;17.056;2022-08-03T06:36:56;49.40;20.20
68433;DHT22;55412;51.350;17.056;2022-08-03T06:39:22;50.00;19.60
68433;DHT22;55412;51.350;17.056;2022-08-03T06:41:48;50.20;19.70
68433;DHT22;55412;51.350;17.056;2022-08-03T06:44:14;50.70;19.40
68433;DHT22;55412;51.350;17.056;2022-08-03T06:46:41;50.90;19.00
68433;DHT22;55412;51.350;17.056;2022-08-03T06:49:09;51.20;18.60
68433;DHT22;55412;51.350;17.056;2022-08-03T06:51:35;51.70;18.00
68433;DHT22;55412;51.350;17.056;2022-08-03T06:54:01;52.10;18.50
68433;DHT22;55412;51.350;17.056;2022-08-03T06:56:27;52.70;18.40
68433;DHT22;55412;51.350;17.056;2022-08-03T06:58:53;52.90;17.80
68433;DHT22;55412;51.350;17.056;2022-08-03T07:01:19;52.90;18.20
68433;DHT22;55412;51.350;17.056;2022-08-03T07:03:45;52.80;18.10
68433;DHT22;55412;51.350;17.056;2022-08-03T07:06:11;52.70;18.10
68433;DHT22;55412;51.350;17.056;2022-08-03T07:08:37;52.60;17.90
68433;DHT22;55412;51.350;17.056;2022-08-03T07:11:03;52.10;18.60
68433;DHT22;55412;51.350;17.056;2022-08-03T07:13:29;51.30;19.10
68433;DHT22;55412;51.350;17.056;2022-08-03T07:15:55;50.20;19.80
68433;DHT22;55412;51.350;17.056;2022-08-03T07:18:21;48.70;21.00
68433;DHT22;55412;51.350;17.056;2022-08-03T07:20:48;47.20;22.30
68433;DHT22;55412;51.350;17.056;2022-08-03T07:23:14;46.30;22.70
68433;DHT22;55412;51.350;17.056;2022-08-03T07:25:40;45.40;23.60
68433;DHT22;55412;51.350;17.056;2022-08-03T07:28:06;44.40;24.60
68433;DHT22;55412;51.350;17.056;2022-08-03T07:30:32;43.30;25.30
68433;DHT22;55412;51.350;17.056;2022-08-03T07:33:00;42.40;25.70
68433;DHT22;55412;51.350;17.056;2022-08-03T07:35:26;41.30;26.40
68433;DHT22;55412;51.350;17.056;2022-08-03T07:37:52;40.20;27.20
68433;DHT22;55412;51.350;17.056;2022-08-03T07:40:18;39.40;29.50
68433;DHT22;55412;51.350;17.056;2022-08-03T07:42:45;39.00;29.90
68433;DHT22;55412;51.350;17.056;2022-08-03T07:45:11;38.80;30.20
68433;DHT22;55412;51.350;17.056;2022-08-03T07:47:37;38.30;30.60
68433;DHT22;55412;51.350;17.056;2022-08-03T07:50:05;37.90;30.80
68433;DHT22;55412;51.350;17.056;2022-08-03T07:52:31;37.30;31.40
68433;DHT22;55412;51.350;17.056;2022-08-03T07:55:12;36.90;32.50
68433;DHT22;55412;51.350;17.056;2022-08-03T07:57:39;36.50;32.90
68433;DHT22;55412;51.350;17.056;2022-08-03T08:00:07;36.20;33.10
68433;DHT22;55412;51.350;17.056;2022-08-03T08:02:42;35.80;33.60
68433;DHT22;55412;51.350;17.056;2022-08-03T08:05:09;35.40;34.50
68433;DHT22;55412;51.350;17.056;2022-08-03T08:07:36;35.00;34.30
68433;DHT22;55412;51.350;17.056;2022-08-03T08:10:05;34.80;35.80
68433;DHT22;55412;51.350;17.056;2022-08-03T08:12:32;34.60;36.00
68433;DHT22;55412;51.350;17.056;2022-08-03T08:14:58;34.60;36.30
68433;DHT22;55412;51.350;17.056;2022-08-03T08:17:24;34.50;36.00
68433;DHT22;55412;51.350;17.056;2022-08-03T08:19:50;34.00;37.20
68433;DHT22;55412;51.350;17.056;2022-08-03T08:22:16;33.90;36.70
68433;DHT22;55412;51.350;17.056;2022-08-03T08:24:42;33.70;36.60
68433;DHT22;55412;51.350;17.056;2022-08-03T08:27:09;33.50;36.60
68433;DHT22;55412;51.350;17.056;2022-08-03T08:29:37;33.40;36.60
68433;DHT22;55412;51.350;17.056;2022-08-03T08:32:03;33.00;37.00
68433;DHT22;55412;51.350;17.056;2022-08-03T08:34:30;33.00;39.10
68433;DHT22;55412;51.350;17.056;2022-08-03T08:36:56;32.90;38.50
68433;DHT22;55412;51.350;17.056;2022-08-03T08:39:23;32.90;37.90
68433;DHT22;55412;51.350;17.056;2022-08-03T08:41:52;32.80;37.20
68433;DHT22;55412;51.350;17.056;2022-08-03T08:44:18;32.70;37.50
68433;DHT22;55412;51.350;17.056;2022-08-03T08:46:44;32.70;38.70
68433;DHT22;55412;51.350;17.056;2022-08-03T08:49:12;32.60;38.20
68433;DHT22;55412;51.350;17.056;2022-08-03T08:51:42;32.50;39.90
68433;DHT22;55412;51.350;17.056;2022-08-03T08:54:10;32.40;39.80
68433;DHT22;55412;51.350;17.056;2022-08-03T08:56:37;32.50;38.60
68433;DHT22;55412;51.350;17.056;2022-08-03T08:59:03;32.30;39.10
68433;DHT22;55412;51.350;17.056;2022-08-03T09:01:30;32.30;39.30
68433;DHT22;55412;51.350;17.056;2022-08-03T09:03:56;32.30;39.60
68433;DHT22;55412;51.350;17.056;2022-08-03T09:06:22;32.30;39.00
68433;DHT22;55412;51.350;17.056;2022-08-03T09:08:49;32.10;39.20
68433;DHT22;55412;51.350;17.056;2022-08-03T09:11:15;32.10;40.20
68433;DHT22;55412;51.350;17.056;2022-08-03T09:13:41;31.90;40.40
68433;DHT22;55412;51.350;17.056;2022-08-03T09:16:15;31.90;39.50
68433;DHT22;55412;51.350;17.056;2022-08-03T09:18:47;31.90;38.30
68433;DHT22;55412;51.350;17.056;2022-08-03T09:21:25;31.90;40.30
68433;DHT22;55412;51.350;17.056;2022-08-03T09:23:56;31.90;40.20
68433;DHT22;55412;51.350;17.056;2022-08-03T09:26:27;31.90;39.40
68433;DHT22;55412;51.350;17.056;2022-08-03T09:31:34;31.60;40.20
68433;DHT22;55412;51.350;17.056;2022-08-03T09:34:09;31.60;41.50
68433;DHT22;55412;51.350;17.056;2022-08-03T09:36:47;31.50;40.40
68433;DHT22;55412;51.350;17.056;2022-08-03T09:39:19;31.30;40.00
68433;DHT22;55412;51.350;17.056;2022-08-03T09:44:35;31.30;41.90
68433;DHT22;55412;51.350;17.056;2022-08-03T09:47:13;31.30;42.50
68433;DHT22;55412;51.350;17.056;2022-08-03T09:50:08;31.40;39.50
68433;DHT22;55412;51.350;17.056;2022-08-03T09:52:36;31.20;40.10
68433;DHT22;55412;51.350;17.056;2022-08-03T09:55:10;31.20;41.50
68433;DHT22;55412;51.350;17.056;2022-08-03T09:57:38;31.20;42.10
68433;DHT22;55412;51.350;17.056;2022-08-03T10:00:12;31.30;39.80
68433;DHT22;55412;51.350;17.056;2022-08-03T10:02:42;31.20;41.90
68433;DHT22;55412;51.350;17.056;2022-08-03T10:05:12;31.30;41.30
68433;DHT22;55412;51.350;17.056;2022-08-03T10:07:48;31.40;41.30
68433;DHT22;55412;51.350;17.056;2022-08-03T10:10:16;31.50;41.10
68433;DHT22;55412;51.350;17.056;2022-08-03T10:12:44;31.50;40.80
68433;DHT22;55412;51.350;17.056;2022-08-03T10:15:12;31.50;40.40
68433;DHT22;55412;51.350;17.056;2022-08-03T10:17:38;31.50;40.60
68433;DHT22;55412;51.350;17.056;2022-08-03T10:20:05;31.50;41.70
68433;DHT22;55412;51.350;17.056;2022-08-03T10:22:34;31.40;40.90
68433;DHT22;55412;51.350;17.056;2022-08-03T10:25:08;31.40;41.40
68433;DHT22;55412;51.350;17.056;2022-08-03T10:27:43;31.40;40.10
68433;DHT22;55412;51.350;17.056;2022-08-03T10:30:11;31.40;41.60
68433;DHT22;55412;51.350;17.056;2022-08-03T10:32:48;31.50;41.80
68433;DHT22;55412;51.350;17.056;2022-08-03T10:35:30;31.50;40.80
68433;DHT22;55412;51.350;17.056;2022-08-03T10:37:58;31.50;40.80
68433;DHT22;55412;51.350;17.056;2022-08-03T10:40:30;31.50;40.90
68433;DHT22;55412;51.350;17.056;2022-08-03T10:43:18;31.40;41.70
68433;DHT22;55412;51.350;17.056;2022-08-03T10:45:48;31.40;40.70
68433;DHT22;55412;51.350;17.056;2022-08-03T10:48:15;31.10;41.00
68433;DHT22;55412;51.350;17.056;2022-08-03T10:50:43;31.20;41.90
68433;DHT22;55412;51.350;17.056;2022-08-03T10:53:10;31.30;42.30
68433;DHT22;55412;51.350;17.056;2022-08-03T10:55:41;31.20;41.00
68433;DHT22;55412;51.350;17.056;2022-08-03T11:01:07;31.40;41.50
68433;DHT22;55412;51.350;17.056;2022-08-03T11:06:26;31.60;39.80
68433;DHT22;55412;51.350;17.056;2022-08-03T11:09:21;31.80;40.80
68433;DHT22;55412;51.350;17.056;2022-08-03T11:11:47;31.90;40.30
68433;DHT22;55412;51.350;17.056;2022-08-03T11:14:19;31.80;40.20
68433;DHT22;55412;51.350;17.056;2022-08-03T11:17:04;31.80;41.20
68433;DHT22;55412;51.350;17.056;2022-08-03T11:19:51;31.80;41.00
68433;DHT22;55412;51.350;17.056;2022-08-03T11:22:19;31.80;39.00
68433;DHT22;55412;51.350;17.056;2022-08-03T11:27:26;31.80;39.40
68433;DHT22;55412;51.350;17.056;2022-08-03T11:30:03;31.50;38.50
68433;DHT22;55412;51.350;17.056;2022-08-03T11:35:11;31.40;40.10
68433;DHT22;55412;51.350;17.056;2022-08-03T11:43:53;31.50;39.30
68433;DHT22;55412;51.350;17.056;2022-08-03T11:46:06;31.60;41.40
68433;DHT22;55412;51.350;17.056;2022-08-03T11:48:49;31.60;41.40
68433;DHT22;55412;51.350;17.056;2022-08-03T11:53:57;31.50;40.60
68433;DHT22;55412;51.350;17.056;2022-08-03T11:56:26;31.50;39.10
68433;DHT22;55412;51.350;17.056;2022-08-03T11:58:55;31.60;39.80
68433;DHT22;55412;51.350;17.056;2022-08-03T12:01:23;31.80;39.20
68433;DHT22;55412;51.350;17.056;2022-08-03T12:03:50;31.80;40.10
68433;DHT22;55412;51.350;17.056;2022-08-03T12:06:17;31.80;38.40
68433;DHT22;55412;51.350;17.056;2022-08-03T12:08:45;31.60;37.50
68433;DHT22;55412;51.350;17.056;2022-08-03T12:11:13;31.40;38.40
68433;DHT22;55412;51.350;17.056;2022-08-03T12:13:42;31.30;38.10
68433;DHT22;55412;51.350;17.056;2022-08-03T12:16:14;31.30;39.00
68433;DHT22;55412;51.350;17.056;2022-08-03T12:18:43;31.40;38.00
68433;DHT22;55412;51.350;17.056;2022-08-03T12:21:11;31.40;38.30
68433;DHT22;55412;51.350;17.056;2022-08-03T12:23:38;31.50;39.00
68433;DHT22;55412;51.350;17.056;2022-08-03T12:26:06;31.50;37.90
68433;DHT22;55412;51.350;17.056;2022-08-03T12:28:35;31.50;38.00
68433;DHT22;55412;51.350;17.056;2022-08-03T12:31:05;31.60;40.30
68433;DHT22;55412;51.350;17.056;2022-08-03T12:34:00;31.70;37.70
68433;DHT22;55412;51.350;17.056;2022-08-03T12:36:30;31.70;38.20
68433;DHT22;55412;51.350;17.056;2022-08-03T12:39:03;31.60;38.90
68433;DHT22;55412;51.350;17.056;2022-08-03T12:41:36;31.60;37.90
68433;DHT22;55412;51.350;17.056;2022-08-03T12:44:04;31.60;38.50
68433;DHT22;55412;51.350;17.056;2022-08-03T12:49:13;31.30;36.40
68433;DHT22;55412;51.350;17.056;2022-08-03T12:54:08;31.40;36.00
68433;DHT22;55412;51.350;17.056;2022-08-03T12:57:01;31.30;37.40
68433;DHT22;55412;51.350;17.056;2022-08-03T12:59:36;31.40;38.50
68433;DHT22;55412;51.350;17.056;2022-08-03T13:02:20;31.40;38.90
68433;DHT22;55412;51.350;17.056;2022-08-03T13:04:49;31.50;36.90
68433;DHT22;55412;51.350;17.056;2022-08-03T13:07:17;31.50;36.40
68433;DHT22;55412;51.350;17.056;2022-08-03T13:09:47;31.50;37.20
68433;DHT22;55412;51.350;17.056;2022-08-03T13:14:50;31.50;39.10
68433;DHT22;55412;51.350;17.056;2022-08-03T13:17:17;31.40;38.00
68433;DHT22;55412;51.350;17.056;2022-08-03T13:19:44;31.40;37.60
68433;DHT22;55412;51.350;17.056;2022-08-03T13:22:20;31.30;37.90
68433;DHT22;55412;51.350;17.056;2022-08-03T13:24:52;31.40;37.00
68433;DHT22;55412;51.350;17.056;2022-08-03T13:27:21;31.40;37.50
68433;DHT22;55412;51.350;17.056;2022-08-03T13:29:47;31.30;36.70
68433;DHT22;55412;51.350;17.056;2022-08-03T13:32:13;31.40;39.10
68433;DHT22;55412;51.350;17.056;2022-08-03T13:34:39;31.40;38.10
68433;DHT22;55412;51.350;17.056;2022-08-03T13:37:05;31.30;36.10
68433;DHT22;55412;51.350;17.056;2022-08-03T13:39:32;31.20;36.90
68433;DHT22;55412;51.350;17.056;2022-08-03T13:41:58;31.20;37.20
68433;DHT22;55412;51.350;17.056;2022-08-03T13:44:24;31.20;37.20
68433;DHT22;55412;51.350;17.056;2022-08-03T13:46:50;31.20;38.00
68433;DHT22;55412;51.350;17.056;2022-08-03T13:49:16;31.30;38.80
68433;DHT22;55412;51.350;17.056;2022-08-03T13:51:42;31.30;36.50
68433;DHT22;55412;51.350;17.056;2022-08-03T13:54:08;31.20;38.40
68433;DHT22;55412;51.350;17.056;2022-08-03T13:56:34;31.20;35.90
68433;DHT22;55412;51.350;17.056;2022-08-03T13:59:00;31.10;39.20
68433;DHT22;55412;51.350;17.056;2022-08-03T14:01:27;31.10;39.20
68433;DHT22;55412;51.350;17.056;2022-08-03T14:03:53;31.10;37.40
68433;DHT22;55412;51.350;17.056;2022-08-03T14:06:21;31.10;37.00
68433;DHT22;55412;51.350;17.056;2022-08-03T14:08:48;31.00;38.30
68433;DHT22;55412;51.350;17.056;2022-08-03T14:11:16;30.90;38.80
68433;DHT22;55412;51.350;17.056;2022-08-03T14:13:43;30.90;37.50
68433;DHT22;55412;51.350;17.056;2022-08-03T14:16:09;30.90;38.60
68433;DHT22;55412;51.350;17.056;2022-08-03T14:18:35;30.90;38.10
68433;DHT22;55412;51.350;17.056;2022-08-03T14:21:03;30.90;35.70
68433;DHT22;55412;51.350;17.056;2022-08-03T14:23:30;30.90;38.80
68433;DHT22;55412;51.350;17.056;2022-08-03T14:25:56;30.90;35.90
68433;DHT22;55412;51.350;17.056;2022-08-03T14:28:23;30.90;35.70
68433;DHT22;55412;51.350;17.056;2022-08-03T14:30:50;30.90;36.00
68433;DHT22;55412;51.350;17.056;2022-08-03T14:33:17;31.00;36.60
68433;DHT22;55412;51.350;17.056;2022-08-03T14:35:44;31.00;36.70
68433;DHT22;55412;51.350;17.056;2022-08-03T14:38:10;31.10;36.50
68433;DHT22;55412;51.350;17.056;2022-08-03T14:40:36;31.10;37.10
68433;DHT22;55412;51.350;17.056;2022-08-03T14:43:02;31.20;38.80
68433;DHT22;55412;51.350;17.056;2022-08-03T14:45:28;31.20;37.50
68433;DHT22;55412;51.350;17.056;2022-08-03T14:47:55;31.20;39.60
68433;DHT22;55412;51.350;17.056;2022-08-03T14:50:21;31.10;38.10
68433;DHT22;55412;51.350;17.056;2022-08-03T14:52:47;31.10;38.30
68433;DHT22;55412;51.350;17.056;2022-08-03T14:55:13;31.10;38.10
68433;DHT22;55412;51.350;17.056;2022-08-03T14:57:39;31.00;39.30
68433;DHT22;55412;51.350;17.056;2022-08-03T15:00:06;31.00;37.50
68433;DHT22;55412;51.350;17.056;2022-08-03T15:02:32;30.90;39.00
68433;DHT22;55412;51.350;17.056;2022-08-03T15:04:58;30.90;37.80
68433;DHT22;55412;51.350;17.056;2022-08-03T15:07:24;30.80;37.20
68433;DHT22;55412;51.350;17.056;2022-08-03T15:09:50;30.80;38.90
68433;DHT22;55412;51.350;17.056;2022-08-03T15:12:16;30.80;39.10
68433;DHT22;55412;51.350;17.056;2022-08-03T15:14:42;30.80;37.00
68433;DHT22;55412;51.350;17.056;2022-08-03T15:17:09;30.80;38.50
68433;DHT22;55412;51.350;17.056;2022-08-03T15:19:35;30.80;37.40
68433;DHT22;55412;51.350;17.056;2022-08-03T15:22:01;30.80;36.80
68433;DHT22;55412;51.350;17.056;2022-08-03T15:24:27;30.80;37.90
68433;DHT22;55412;51.350;17.056;2022-08-03T15:26:53;30.80;36.50
68433;DHT22;55412;51.350;17.056;2022-08-03T15:29:20;30.80;36.10
68433;DHT22;55412;51.350;17.056;2022-08-03T15:31:46;30.80;36.80
68433;DHT22;55412;51.350;17.056;2022-08-03T15:34:12;30.80;39.50
68433;DHT22;55412;51.350;17.056;2022-08-03T15:36:38;30.80;39.60
68433;DHT22;55412;51.350;17.056;2022-08-03T15:39:05;30.70;38.40
68433;DHT22;55412;51.350;17.056;2022-08-03T15:41:31;30.70;37.70
68433;DHT22;55412;51.350;17.056;2022-08-03T15:43:57;30.60;38.30
68433;DHT22;55412;51.350;17.056;2022-08-03T15:46:23;30.60;37.10
68433;DHT22;55412;51.350;17.056;2022-08-03T15:48:49;30.50;37.70
68433;DHT22;55412;51.350;17.056;2022-08-03T15:51:16;30.50;38.90
68433;DHT22;55412;51.350;17.056;2022-08-03T15:53:43;30.50;37.20
68433;DHT22;55412;51.350;17.056;2022-08-03T15:56:10;30.50;39.80
68433;DHT22;55412;51.350;17.056;2022-08-03T15:58:37;30.50;38.80
68433;DHT22;55412;51.350;17.056;2022-08-03T16:01:04;30.40;39.20
68433;DHT22;55412;51.350;17.056;2022-08-03T16:03:31;30.40;39.10
68433;DHT22;55412;51.350;17.056;2022-08-03T16:06:05;30.30;38.60
68433;DHT22;55412;51.350;17.056;2022-08-03T16:08:31;30.30;39.30
68433;DHT22;55412;51.350;17.056;2022-08-03T16:10:58;30.30;39.10
68433;DHT22;55412;51.350;17.056;2022-08-03T16:13:25;30.30;38.80